Startpagina
METAR-TAF:

METAR-TAF

Vliegvelden :

Brussels Airport. Zaventem

Brussel, België

breedte: 50-54N, lengte: 004-32E, hoogte: 55 m

Actueel weer

Dit bericht is 28 minuten geleden gemaakt, om 12:20 UTC
Wind 11 kt uit het westen
Temperatuur 19°C
Vochtigheid 49%
Druk 1021 hPa
Zicht 10 km of meer
Weinig wolken op 4400 ft

METAR: EBBR 071220Z 28011KT 9999 FEW044 19/08 Q1021 NOSIG

Tijdstip: 14:48 (12:48 UTC)

Verwachting

Dit bericht is 1 uur en het 38 minuten geleden gemaakt, om 11:10 UTC
Verwachting geldig van 07 om 12 UTC tot 08 om 18 UTC
Wind 8 kt uit het westen
Zicht 10 km of meer
Verspreide wolken op 4500 ft
Wijzigt naar
van 08 om 05 UTC tot 08 om 07 UTC
Verspreide wolken op 800 ft
Gebroken wolken op 1200 ft
Tijdelijke
van 08 om 06 UTC tot 08 om 18 UTC
Zicht: 4000 m
Gebroken wolken op 600 ft
regen, regen, motregen

TAF: EBBR 071110Z 0712/0818 28008KT 9999 SCT045 BECMG 0805/0807 SCT008 BKN012 TEMPO 0806/0818 4000 RA RADZ BKN006

Waarnemingen en weersverwachtingen van meer dan 4000 vliegvelden (METAR en TAF).

De beschikbare stations zijn de gele en rode punten op de kaart.

Ga met uw muis naar het station om de naam te zien.

Klik dan om waarnemingen en weersverwachtingen te zien.

kaart wijzigen: klik op de groene knoppen met een zwart kruis om in te zoomen, op de groene knop met een streepje om uit te zoomen of op de groene pijlen voor aangrenzende kaarten.


METAR-TAF: